createdAt,value
2023-03-26T00:01:33.644Z,12.10
2023-03-26T00:04:01.266Z,9.80
2023-03-26T00:06:36.868Z,9.80
2023-03-26T00:09:06.910Z,10.90
2023-03-26T00:11:35.924Z,9.70
2023-03-26T00:14:03.659Z,9.70
2023-03-26T00:16:32.447Z,9.70
2023-03-26T00:19:01.715Z,9.90
2023-03-26T00:21:30.916Z,9.60
2023-03-26T00:24:06.171Z,9.60
2023-03-26T00:26:40.989Z,9.60
2023-03-26T00:29:09.887Z,9.50
2023-03-26T00:31:39.848Z,10.70
2023-03-26T00:34:06.957Z,9.40
2023-03-26T00:36:36.023Z,9.40
2023-03-26T00:39:06.024Z,11.30
2023-03-26T00:41:37.124Z,9.30
2023-03-26T00:44:04.312Z,11.30
2023-03-26T00:46:32.186Z,9.30
2023-03-26T00:49:00.605Z,11.40
2023-03-26T00:51:28.764Z,9.30
2023-03-26T00:53:59.997Z,9.30
2023-03-26T00:56:27.105Z,11.40
2023-03-26T00:58:54.149Z,10.40
2023-03-26T01:01:27.736Z,9.40
2023-03-26T01:04:08.917Z,10.40
2023-03-26T01:06:41.438Z,11.90
2023-03-26T01:09:16.896Z,10.80
2023-03-26T01:11:44.644Z,9.40
2023-03-26T01:14:17.066Z,12.20
2023-03-26T01:17:06.996Z,11.70
2023-03-26T01:20:13.287Z,9.50
2023-03-26T01:22:49.975Z,9.50
2023-03-26T01:25:17.108Z,11.60
2023-03-26T01:27:54.981Z,9.50
2023-03-26T01:30:41.518Z,9.50
2023-03-26T01:33:21.116Z,9.50
2023-03-26T01:36:17.674Z,12.00
2023-03-26T01:39:11.614Z,9.40
2023-03-26T01:41:45.548Z,9.50
2023-03-26T01:44:27.633Z,9.50
2023-03-26T01:46:55.674Z,9.50
2023-03-26T01:49:22.780Z,11.40
2023-03-26T01:51:51.537Z,9.80
2023-03-26T01:54:22.996Z,9.40
2023-03-26T01:57:23.535Z,9.50
2023-03-26T02:00:31.358Z,9.50
2023-03-26T02:03:30.652Z,9.50
2023-03-26T02:06:42.627Z,9.40
2023-03-26T02:09:16.207Z,9.30
2023-03-26T02:11:45.189Z,11.20
2023-03-26T02:14:13.846Z,11.50
2023-03-26T02:16:41.035Z,10.10
2023-03-26T02:19:15.512Z,9.20
2023-03-26T02:21:42.788Z,11.80
2023-03-26T02:24:09.701Z,10.00
2023-03-26T02:26:37.725Z,10.90
2023-03-26T02:29:05.153Z,9.20
2023-03-26T02:31:32.145Z,9.20
2023-03-26T02:33:59.020Z,9.20
2023-03-26T02:36:28.043Z,12.00
2023-03-26T02:38:57.872Z,10.30
2023-03-26T02:41:25.081Z,9.20
2023-03-26T02:43:52.063Z,11.60
2023-03-26T02:46:19.169Z,10.60
2023-03-26T02:48:46.231Z,11.10
2023-03-26T02:51:13.171Z,11.00
2023-03-26T02:53:41.228Z,11.30
2023-03-26T02:56:09.113Z,9.10
2023-03-26T02:58:36.210Z,9.20
2023-03-26T03:01:03.399Z,11.80
2023-03-26T03:03:30.897Z,9.10
2023-03-26T03:05:58.128Z,9.00
2023-03-26T03:08:28.147Z,9.00
2023-03-26T03:11:13.299Z,11.00
2023-03-26T03:13:42.219Z,8.90
2023-03-26T03:16:10.761Z,9.20
2023-03-26T03:18:37.971Z,11.30
2023-03-26T03:21:06.327Z,11.30
2023-03-26T03:23:34.849Z,8.70
2023-03-26T03:26:02.648Z,10.60
2023-03-26T03:28:30.530Z,8.70
2023-03-26T03:30:57.616Z,8.70
2023-03-26T03:33:24.687Z,8.70
2023-03-26T03:35:51.850Z,10.90
2023-03-26T03:38:19.310Z,11.50
2023-03-26T03:40:46.595Z,10.60
2023-03-26T03:43:13.540Z,8.50
2023-03-26T03:45:40.641Z,8.50
2023-03-26T03:48:07.671Z,8.40
2023-03-26T03:50:35.872Z,10.10
2023-03-26T03:53:05.603Z,11.00
2023-03-26T03:55:32.653Z,8.50
2023-03-26T03:57:59.990Z,8.50
2023-03-26T04:00:27.011Z,8.50
2023-03-26T04:02:54.585Z,9.50
2023-03-26T04:05:21.895Z,10.90
2023-03-26T04:07:48.840Z,8.30
2023-03-26T04:10:16.435Z,8.30
2023-03-26T04:12:43.391Z,8.40
2023-03-26T04:15:11.186Z,8.40
2023-03-26T04:17:44.945Z,8.30
2023-03-26T04:20:15.728Z,8.80
2023-03-26T04:22:44.025Z,8.20
2023-03-26T04:25:12.775Z,11.20
2023-03-26T04:27:41.764Z,10.10
2023-03-26T04:30:15.011Z,9.50
2023-03-26T04:32:43.146Z,8.10
2023-03-26T04:35:14.811Z,8.20
2023-03-26T04:37:44.248Z,8.20
2023-03-26T04:40:18.383Z,8.10
2023-03-26T04:42:48.417Z,8.10
2023-03-26T04:45:22.604Z,10.30
2023-03-26T04:47:52.466Z,8.20
2023-03-26T04:50:19.469Z,9.20
2023-03-26T04:52:46.578Z,7.90
2023-03-26T04:55:46.234Z,8.00
2023-03-26T04:58:13.976Z,8.00
2023-03-26T05:00:42.071Z,7.90
2023-03-26T05:03:12.591Z,8.00
2023-03-26T05:05:40.577Z,8.00
2023-03-26T05:08:07.888Z,10.80
2023-03-26T05:10:34.929Z,8.10
2023-03-26T05:13:01.847Z,8.10
2023-03-26T05:15:28.804Z,8.20
2023-03-26T05:17:56.043Z,8.20
2023-03-26T05:20:27.001Z,9.50
2023-03-26T05:22:54.134Z,8.20
2023-03-26T05:25:21.026Z,10.40
2023-03-26T05:27:48.335Z,9.90
2023-03-26T05:30:21.157Z,8.10
2023-03-26T05:32:49.671Z,8.10
2023-03-26T05:35:17.333Z,8.10
2023-03-26T05:37:46.263Z,9.50
2023-03-26T05:40:14.985Z,8.10
2023-03-26T05:42:42.702Z,8.20
2023-03-26T05:45:13.150Z,10.80
2023-03-26T05:47:40.680Z,8.20
2023-03-26T05:50:09.132Z,8.20
2023-03-26T05:52:36.125Z,8.20
2023-03-26T05:55:03.232Z,8.30
2023-03-26T05:57:31.164Z,9.80
2023-03-26T05:59:58.153Z,11.00
2023-03-26T06:02:25.173Z,11.00
2023-03-26T06:04:52.554Z,8.30
2023-03-26T06:07:20.247Z,8.30
2023-03-26T06:09:47.211Z,8.30
2023-03-26T06:12:14.967Z,10.50
2023-03-26T06:14:42.894Z,11.10
2023-03-26T06:17:10.734Z,9.80
2023-03-26T06:19:37.846Z,10.30
2023-03-26T06:22:05.949Z,8.50
2023-03-26T06:24:34.399Z,11.30
2023-03-26T06:27:01.385Z,10.40
2023-03-26T06:29:28.488Z,10.00
2023-03-26T06:31:55.395Z,8.70
2023-03-26T06:34:22.354Z,8.80
2023-03-26T06:36:52.491Z,11.10
2023-03-26T06:39:20.298Z,9.90
2023-03-26T06:41:47.545Z,11.90
2023-03-26T06:44:14.521Z,10.00
2023-03-26T06:46:41.591Z,9.20
2023-03-26T06:49:08.692Z,9.30
2023-03-26T06:51:36.046Z,9.60
2023-03-26T06:54:02.904Z,9.40
2023-03-26T06:56:29.828Z,12.20
2023-03-26T06:58:56.826Z,10.90
2023-03-26T07:01:23.886Z,12.00
2023-03-26T07:03:50.884Z,9.40
2023-03-26T07:06:17.868Z,11.10
2023-03-26T07:08:44.830Z,11.20
2023-03-26T07:11:11.906Z,9.70
2023-03-26T07:13:40.031Z,12.10
2023-03-26T07:16:07.692Z,11.70
2023-03-26T07:18:34.713Z,10.00
2023-03-26T07:21:02.135Z,10.10
2023-03-26T07:23:29.352Z,10.20
2023-03-26T07:25:56.741Z,10.20
2023-03-26T07:28:37.527Z,10.20
2023-03-26T07:31:56.340Z,11.80
2023-03-26T07:34:47.525Z,10.20
2023-03-26T07:37:25.968Z,10.30
2023-03-26T07:40:08.106Z,10.40
2023-03-26T07:43:45.440Z,10.50
2023-03-26T07:46:14.170Z,10.50
2023-03-26T07:48:50.035Z,10.60
2023-03-26T07:51:18.794Z,10.70
2023-03-26T07:53:46.350Z,10.70
2023-03-26T07:56:39.113Z,10.80
2023-03-26T07:59:21.536Z,10.70
2023-03-26T08:02:00.321Z,12.00
2023-03-26T08:04:50.448Z,10.70
2023-03-26T08:07:29.266Z,10.60
2023-03-26T08:10:16.721Z,10.60
2023-03-26T08:12:58.233Z,10.60
2023-03-26T08:15:41.840Z,11.20
2023-03-26T08:18:30.438Z,10.60
2023-03-26T08:21:14.215Z,10.60
2023-03-26T08:24:25.321Z,10.70
2023-03-26T08:27:08.690Z,10.80
2023-03-26T08:30:02.193Z,10.90
2023-03-26T08:32:29.567Z,12.90
2023-03-26T08:34:57.604Z,11.00
2023-03-26T08:37:24.504Z,11.20
2023-03-26T08:39:51.582Z,12.30
2023-03-26T08:42:30.345Z,11.20
2023-03-26T08:45:34.748Z,11.30
2023-03-26T08:48:44.668Z,12.60
2023-03-26T08:51:48.421Z,11.40
2023-03-26T08:54:44.415Z,11.50
2023-03-26T08:58:16.979Z,12.50
2023-03-26T09:01:32.025Z,11.70
2023-03-26T09:04:13.254Z,11.70
2023-03-26T09:07:32.942Z,11.80
2023-03-26T09:10:51.920Z,11.60
2023-03-26T09:13:57.015Z,11.50
2023-03-26T09:16:51.154Z,13.90
2023-03-26T09:19:48.572Z,11.50
2023-03-26T09:23:16.649Z,11.60
2023-03-26T09:26:18.844Z,11.70
2023-03-26T09:29:16.784Z,11.80
2023-03-26T09:32:02.496Z,12.00
2023-03-26T09:35:13.570Z,12.30
2023-03-26T09:38:22.117Z,12.40
2023-03-26T09:41:09.648Z,12.60
2023-03-26T09:43:47.097Z,12.80
2023-03-26T09:46:39.945Z,14.00
2023-03-26T09:49:38.757Z,12.90
2023-03-26T09:52:32.984Z,13.10
2023-03-26T09:55:24.377Z,13.10
2023-03-26T09:58:19.946Z,13.10
2023-03-26T10:01:34.270Z,13.00
2023-03-26T10:04:18.582Z,12.90
2023-03-26T10:07:22.370Z,12.90
2023-03-26T10:10:57.259Z,12.90
2023-03-26T10:14:04.188Z,12.90
2023-03-26T10:16:33.801Z,15.40
2023-03-26T10:19:27.203Z,13.40
2023-03-26T10:22:28.192Z,13.30
2023-03-26T10:25:48.547Z,13.40
2023-03-26T10:28:45.882Z,13.30
2023-03-26T10:31:40.672Z,13.20
2023-03-26T10:34:29.938Z,13.20
2023-03-26T10:37:18.042Z,14.80
2023-03-26T10:40:00.640Z,13.70
2023-03-26T10:42:45.277Z,13.80
2023-03-26T10:45:27.270Z,13.90
2023-03-26T10:48:28.017Z,14.50
2023-03-26T10:51:26.497Z,15.90
2023-03-26T10:54:06.242Z,14.70
2023-03-26T10:56:46.348Z,14.90
2023-03-26T10:59:15.800Z,15.30
2023-03-26T11:02:32.536Z,15.80
2023-03-26T11:05:34.503Z,15.70
2023-03-26T11:08:13.744Z,15.60
2023-03-26T11:10:50.936Z,15.80
2023-03-26T11:13:48.744Z,15.80
2023-03-26T11:16:47.909Z,15.50
2023-03-26T11:19:20.994Z,15.20
2023-03-26T11:22:04.034Z,14.80
2023-03-26T11:25:02.798Z,14.70
2023-03-26T11:27:40.595Z,14.80
2023-03-26T11:30:47.277Z,15.20
2023-03-26T11:33:21.886Z,15.20
2023-03-26T11:35:51.825Z,16.80
2023-03-26T11:38:37.489Z,15.80
2023-03-26T11:41:22.781Z,15.30
2023-03-26T11:44:02.768Z,15.30
2023-03-26T11:46:33.604Z,15.30
2023-03-26T11:49:06.840Z,17.40
2023-03-26T11:51:39.433Z,15.20
2023-03-26T11:54:10.897Z,15.40
2023-03-26T11:57:04.597Z,15.80
2023-03-26T11:59:55.647Z,16.00
2023-03-26T12:02:35.537Z,16.10
2023-03-26T12:05:17.925Z,16.10
2023-03-26T12:07:52.382Z,16.00
2023-03-26T12:10:31.478Z,15.80
2023-03-26T12:13:03.425Z,15.70
2023-03-26T12:15:34.067Z,16.10
2023-03-26T12:18:26.843Z,15.80
2023-03-26T12:21:08.747Z,16.00
2023-03-26T12:24:05.319Z,16.10
2023-03-26T12:26:44.823Z,16.10
2023-03-26T12:29:15.846Z,15.90
2023-03-26T12:32:04.472Z,16.00
2023-03-26T12:34:35.428Z,15.60
2023-03-26T12:37:05.515Z,15.50
2023-03-26T12:40:07.852Z,15.50
2023-03-26T12:44:53.177Z,15.80
2023-03-26T12:45:23.918Z,16.10
2023-03-26T12:48:02.354Z,16.20
2023-03-26T12:51:03.804Z,15.90
2023-03-26T12:53:49.266Z,15.80
2023-03-26T12:56:21.512Z,15.60
2023-03-26T12:59:09.440Z,15.50
2023-03-26T13:01:55.694Z,15.30
2023-03-26T13:04:25.216Z,15.20
2023-03-26T13:07:06.389Z,15.00
2023-03-26T13:09:58.715Z,14.90
2023-03-26T13:12:56.951Z,14.80
2023-03-26T13:15:38.933Z,14.60
2023-03-26T13:18:37.850Z,14.50
2023-03-26T13:21:23.003Z,14.30
2023-03-26T13:24:51.071Z,14.20
2023-03-26T13:27:44.862Z,14.00
2023-03-26T13:30:45.248Z,14.10
2023-03-26T13:33:44.640Z,14.10
2023-03-26T13:36:45.943Z,14.10
2023-03-26T13:39:57.940Z,14.00
2023-03-26T13:43:15.496Z,13.90
2023-03-26T13:46:07.246Z,13.90
2023-03-26T13:48:49.268Z,13.80
2023-03-26T13:51:29.361Z,13.80
2023-03-26T13:54:15.789Z,12.50
2023-03-26T13:56:56.866Z,13.90
2023-03-26T13:59:40.465Z,14.00
2023-03-26T14:02:26.563Z,16.70
2023-03-26T14:05:01.289Z,14.00
2023-03-26T14:07:45.199Z,14.20
2023-03-26T14:10:18.794Z,14.40
2023-03-26T14:13:05.605Z,15.00
2023-03-26T14:15:51.580Z,15.00
2023-03-26T14:18:30.265Z,15.20
2023-03-26T14:21:34.218Z,15.20
2023-03-26T14:24:13.285Z,15.30
2023-03-26T14:27:08.312Z,15.40
2023-03-26T14:30:12.288Z,15.60
2023-03-26T14:33:27.460Z,16.00
2023-03-26T14:36:29.545Z,16.30
2023-03-26T14:39:37.032Z,16.70
2023-03-26T14:43:01.793Z,16.90
2023-03-26T14:46:08.064Z,16.90
2023-03-26T14:48:48.304Z,17.20
2023-03-26T14:51:45.104Z,17.30
2023-03-26T14:54:27.205Z,17.10
2023-03-26T14:57:12.534Z,16.70
2023-03-26T15:00:33.811Z,16.30
2023-03-26T15:03:34.680Z,16.00
2023-03-26T15:06:37.994Z,15.50
2023-03-26T15:09:39.215Z,15.30
2023-03-26T15:12:37.176Z,15.00
2023-03-26T15:15:54.104Z,14.60
2023-03-26T15:19:31.664Z,14.40
2023-03-26T15:22:59.829Z,14.20
2023-03-26T15:26:09.881Z,14.00
2023-03-26T15:29:05.955Z,13.90
2023-03-26T15:31:57.701Z,13.90
2023-03-26T15:34:52.204Z,13.90
2023-03-26T15:37:34.354Z,13.90
2023-03-26T15:40:31.647Z,13.80
2023-03-26T15:43:01.546Z,13.90
2023-03-26T15:46:06.160Z,13.80
2023-03-26T15:49:19.201Z,13.80
2023-03-26T15:52:15.302Z,13.80
2023-03-26T15:55:31.378Z,13.80
2023-03-26T15:58:18.066Z,13.80
2023-03-26T16:01:47.065Z,13.70
2023-03-26T16:04:59.155Z,13.70
2023-03-26T16:07:41.484Z,13.70
2023-03-26T16:10:28.461Z,13.50
2023-03-26T16:13:24.159Z,13.50
2023-03-26T16:16:21.030Z,13.50
2023-03-26T16:19:21.797Z,13.50
2023-03-26T16:22:04.475Z,13.50
2023-03-26T16:24:36.147Z,12.50
2023-03-26T16:27:15.242Z,13.50
2023-03-26T16:30:26.647Z,13.80
2023-03-26T16:32:58.728Z,13.50
2023-03-26T16:35:41.822Z,13.40
2023-03-26T16:38:16.241Z,13.40
2023-03-26T16:41:18.797Z,13.30
2023-03-26T16:44:18.662Z,13.20
2023-03-26T16:46:54.463Z,13.10
2023-03-26T16:50:08.269Z,13.00
2023-03-26T16:52:47.810Z,12.90
2023-03-26T16:55:28.350Z,12.90
2023-03-26T16:58:17.111Z,12.80
2023-03-26T17:01:21.375Z,12.80
2023-03-26T17:04:01.724Z,12.70
2023-03-26T17:06:45.879Z,12.70
2023-03-26T17:09:51.934Z,12.70
2023-03-26T17:12:42.871Z,12.60
2023-03-26T17:15:59.812Z,12.50
2023-03-26T17:18:57.665Z,9.70
2023-03-26T17:21:47.815Z,12.40
2023-03-26T17:24:57.001Z,12.40
2023-03-26T17:27:50.101Z,13.00
2023-03-26T17:30:38.474Z,12.20
2023-03-26T17:33:06.413Z,12.20
2023-03-26T17:35:45.773Z,13.10
2023-03-26T17:38:24.720Z,12.10
2023-03-26T17:40:58.936Z,12.00
2023-03-26T17:43:46.177Z,12.00
2023-03-26T17:46:29.175Z,12.00
2023-03-26T17:49:18.515Z,13.00
2023-03-26T17:52:00.441Z,11.90
2023-03-26T17:54:27.360Z,11.80
2023-03-26T17:56:56.499Z,12.00
2023-03-26T17:59:27.235Z,13.40
2023-03-26T18:02:00.944Z,11.80
2023-03-26T18:04:41.045Z,13.00
2023-03-26T18:07:45.131Z,11.50
2023-03-26T18:10:38.991Z,11.50
2023-03-26T18:13:48.869Z,11.40
2023-03-26T18:16:26.250Z,11.40
2023-03-26T18:18:59.537Z,11.90
2023-03-26T18:21:39.243Z,13.10
2023-03-26T18:24:11.268Z,12.30
2023-03-26T18:26:43.755Z,11.30
2023-03-26T18:29:24.048Z,12.10
2023-03-26T18:31:58.429Z,11.30
2023-03-26T18:34:31.472Z,12.10
2023-03-26T18:37:28.561Z,12.70
2023-03-26T18:40:18.325Z,11.20
2023-03-26T18:42:53.063Z,11.10
2023-03-26T18:45:33.663Z,11.00
2023-03-26T18:48:06.001Z,11.00
2023-03-26T18:50:37.263Z,12.00
2023-03-26T18:53:10.106Z,12.10
2023-03-26T18:55:40.352Z,12.00
2023-03-26T18:58:32.735Z,10.90
2023-03-26T19:01:20.146Z,13.20
2023-03-26T19:03:53.771Z,10.90
2023-03-26T19:06:23.325Z,12.70
2023-03-26T19:08:50.773Z,13.70
2023-03-26T19:11:18.292Z,10.80
2023-03-26T19:13:59.730Z,10.90
2023-03-26T19:16:33.869Z,12.60
2023-03-26T19:19:05.427Z,11.50
2023-03-26T19:21:34.637Z,11.90
2023-03-26T19:24:03.755Z,10.70
2023-03-26T19:26:31.620Z,12.00
2023-03-26T19:28:58.748Z,10.70
2023-03-26T19:31:36.733Z,12.70
2023-03-26T19:34:15.628Z,11.00
2023-03-26T19:37:00.967Z,12.60
2023-03-26T19:39:44.826Z,10.60
2023-03-26T19:42:42.971Z,10.50
2023-03-26T19:45:23.223Z,10.50
2023-03-26T19:48:00.645Z,10.40
2023-03-26T19:50:37.185Z,10.40
2023-03-26T19:53:19.241Z,10.40
2023-03-26T19:56:14.600Z,10.30
2023-03-26T19:58:42.802Z,10.30
2023-03-26T20:01:18.746Z,11.80
2023-03-26T20:03:49.918Z,10.30
2023-03-26T20:06:20.960Z,11.80
2023-03-26T20:08:52.096Z,11.70
2023-03-26T20:11:23.575Z,10.20
2023-03-26T20:13:52.402Z,12.80
2023-03-26T20:16:37.742Z,10.10
2023-03-26T20:19:04.767Z,10.10
2023-03-26T20:21:35.162Z,10.00
2023-03-26T20:24:02.921Z,13.10
2023-03-26T20:26:29.897Z,10.30
2023-03-26T20:28:57.146Z,11.80
2023-03-26T20:31:26.738Z,12.50
2023-03-26T20:33:54.658Z,12.00
2023-03-26T20:36:33.591Z,12.70
2023-03-26T20:39:06.282Z,10.80
2023-03-26T20:41:34.478Z,10.00
2023-03-26T20:44:03.719Z,10.60
2023-03-26T20:46:31.915Z,11.60
2023-03-26T20:48:59.943Z,11.80
2023-03-26T20:51:30.599Z,9.90
2023-03-26T20:53:57.581Z,10.00
2023-03-26T20:56:24.583Z,12.30
2023-03-26T20:59:09.857Z,10.30
2023-03-26T21:01:38.599Z,11.80
2023-03-26T21:04:06.526Z,9.80
2023-03-26T21:06:33.424Z,9.80
2023-03-26T21:09:00.817Z,12.20
2023-03-26T21:12:02.890Z,9.80
2023-03-26T21:14:41.790Z,9.80
2023-03-26T21:17:20.626Z,9.80
2023-03-26T21:19:49.155Z,9.80
2023-03-26T21:22:34.177Z,9.80
2023-03-26T21:25:19.701Z,9.70
2023-03-26T21:28:35.486Z,9.70
2023-03-26T21:31:19.087Z,9.70
2023-03-26T21:33:49.305Z,9.60
2023-03-26T21:36:18.668Z,9.60
2023-03-26T21:38:46.522Z,9.50
2023-03-26T21:41:45.044Z,9.60
2023-03-26T21:44:12.121Z,9.50
2023-03-26T21:46:43.190Z,9.60
2023-03-26T21:49:10.899Z,9.50
2023-03-26T21:51:38.441Z,9.50
2023-03-26T21:54:29.061Z,9.50
2023-03-26T21:57:04.765Z,9.50
2023-03-26T22:00:01.863Z,9.60
2023-03-26T22:02:58.158Z,9.40
2023-03-26T22:05:55.771Z,9.40
2023-03-26T22:08:32.440Z,9.50
2023-03-26T22:10:59.506Z,9.50
2023-03-26T22:13:27.219Z,9.40
2023-03-26T22:15:54.649Z,11.50
2023-03-26T22:18:21.732Z,11.60
2023-03-26T22:20:49.586Z,12.20
2023-03-26T22:23:16.934Z,9.40
2023-03-26T22:25:45.472Z,11.70
2023-03-26T22:28:13.779Z,11.50
2023-03-26T22:30:41.557Z,11.10
2023-03-26T22:33:11.065Z,12.10
2023-03-26T22:35:39.160Z,9.30
2023-03-26T22:38:06.878Z,11.80
2023-03-26T22:40:33.847Z,9.30
2023-03-26T22:43:00.757Z,11.70
2023-03-26T22:45:28.002Z,11.20
2023-03-26T22:48:03.796Z,12.30
2023-03-26T22:50:32.573Z,10.90
2023-03-26T22:52:59.735Z,11.00
2023-03-26T22:55:29.346Z,11.80
2023-03-26T22:57:57.368Z,9.30
2023-03-26T23:00:26.439Z,9.30
2023-03-26T23:02:55.774Z,9.30
2023-03-26T23:05:23.503Z,12.20
2023-03-26T23:07:51.824Z,12.10
2023-03-26T23:10:18.853Z,10.40
2023-03-26T23:12:45.776Z,9.20
2023-03-26T23:15:13.118Z,10.90
2023-03-26T23:17:40.250Z,9.90
2023-03-26T23:20:15.654Z,9.20
2023-03-26T23:22:43.464Z,9.20
2023-03-26T23:25:11.629Z,11.20
2023-03-26T23:27:40.345Z,10.30
2023-03-26T23:30:09.415Z,11.00
2023-03-26T23:32:37.909Z,9.30
2023-03-26T23:35:06.142Z,11.10
2023-03-26T23:37:35.028Z,9.30
2023-03-26T23:40:07.372Z,9.30
2023-03-26T23:42:34.559Z,10.30
2023-03-26T23:45:02.061Z,9.20
2023-03-26T23:47:34.378Z,9.80
2023-03-26T23:50:02.511Z,9.20
2023-03-26T23:52:30.679Z,10.00
2023-03-26T23:55:01.137Z,11.70
2023-03-26T23:57:29.030Z,11.20
2023-03-26T23:59:56.225Z,9.20
